Scottdale, Georgia
Current Conditions -  °F | °C
As of 5:53 AM on Friday 19 Dec 2014 (Local Time) from KPDK Reporting Station
Clear Clear  
Wind Chill: 33°   Ceiling: Unl
Heat Index: 38°   Visibility: 10mi
Dew Point: 31°   Wind: 7mph
Humidity: 76%   Direction: 310°NW
Pressure: 30.11"   Gusts: NA
Location:  33.79°N, 84.26°W
Report Text: KPDK 191053Z AUTO 31006KT 10SM CLR 03/M01 A3011 RMK AO2 SLP205 T00331006
Loading
Personal Weather Stations






























Interactive Weather Map New forecast layout! Learn more

10-Day Weather Forecast

Advertisements
Track Severe Weather on mobile